Klagenfurt, Austria
Current Conditions -  °F | °C
As of 4:50 PM on Saturday 25 Oct 2014 (Local Time) from LOWK Reporting Station
Scattered Clouds Scattered Clouds  
Wind Chill: 54°   Ceiling: Unl
Heat Index: 54°   Visibility: 6mi
Dew Point: 39°   Wind: 3mph
Humidity: 58%   Direction: 130°SE
Pressure: 30.21"   Gusts: NA
Location:  46.62°N, 14.31°E
Report Text: LOWK 251450Z 13003KT 080V210 9999 SCT037 12/04 Q1023 NOSIG
Loading
Personal Weather Stations






























Interactive Weather Map
Tropical Storm Tracking
New forecast layout! Learn more

10-Day Weather Forecast

Advertisements
Track Severe Weather on mobile